Syracuse, Kansas
Current Conditions -  °F | °C
As of 10:15 AM on Thursday 18 Dec 2014 (Local Time) from K3K3 Reporting Station
Overcast Overcast  
Wind Chill: 32°   Ceiling: 1000
Heat Index: 32°   Visibility: 10mi
Dew Point: 32°   Wind: 0mph
Humidity: 100%   Direction: NA
Pressure: 30.14"   Gusts: NA
Location:  37.98°N, 101.75°W
Report Text: K3K3 181715Z AUTO 00000KT 10SM OVC010 00/00 A3014 RMK AO2
Loading
Personal Weather Stations






























Interactive Weather Map New forecast layout! Learn more

10-Day Weather Forecast

Advertisements
Track Severe Weather on mobile